Aberdeen, South Dakota
Current Conditions -  °F | °C
As of 9:53 AM on Monday 26 Jan 2015 (Local Time) from KABR Reporting Station
Clear Clear  
Wind Chill: 33°   Ceiling: Unl
Heat Index: 39°   Visibility: 10mi
Dew Point: 32°   Wind: 9mph
Humidity: 76%   Direction: 270°W
Pressure: 29.87"   Gusts: NA
Location:  45.46°N, 98.49°W
Report Text: KABR 261553Z AUTO 27008KT 10SM CLR 04/00 A2987 RMK AO2 SLP128 T00390000
Loading
Personal Weather Stations






























Interactive Weather Map New forecast layout! Learn more

10-Day Weather Forecast

Advertisements
Track Severe Weather on mobile